Travis Air Force Base

Airport
ICAO code: 
KSUU
Summary
ICAO Region: 
NAM
Territory: 
Location: 
Fairfield, California,
Coordinates: 
Aerial View: 
38° 15' 58.829" N, 121° 56' 30.362" W
Metar
Observation
KSUU 040758Z AUTO 24013KT 9SM CLR 10/10 A3012 RMK AO2 SLP206 T00960096 401620075 $
Station
Fairfield / Travis Air Force Base
Date/Time
2021-12-04 07:58:00
Wind direction
240°
Wind speed
13 kts
Lowest cloud amount
n/a
Temperature
9.6°C
Dew point
9.6°C
Humidity
100%
Weather condition
n/a

Description

Travis Air Force Base is a United States Air Force installation located 5 km east of the central business district of Fairfield, in Solano County, California.

Climatology

Mediterranean climate (Köppen climate classification Csb) - cool, wet winters and warm, mostly dry summers.

Runways

Designator Length Width Surface Rops
03R/21L 3350 46 CON Yes/Yes
03L/21R 3353 46 PEM Yes/Yes
Airport map: 
Aerial View: 

SKYbrary Partners:

Safety knowledge contributed by: